Jefferson, Colorado
Current Conditions -  °F | °C
As of 4:15 AM on Sunday 23 Nov 2014 (Local Time) from KCCU Reporting Station
Overcast Overcast  
Wind Chill: -3°   Ceiling: 300
Heat Index: 18°   Visibility: NA
Dew Point: 12°   Wind: 35mph
Humidity: 79%   Direction: 280°W
Pressure: 29.7"   Gusts: 41mph
Location:  39.38°N, 105.8°W
Report Text: KCCU 231115Z AUTO 28030G36KT OVC003 M08/M11 A2970 RMK AO2 PWINO
Loading
Personal Weather Stations






























Interactive Weather Map New forecast layout! Learn more

10-Day Weather Forecast

Advertisements
Track Severe Weather on mobile